createdAt,value
2019-02-22T00:01:40.356Z,100.00
2019-02-22T00:04:11.563Z,100.00
2019-02-22T00:06:42.763Z,100.00
2019-02-22T00:09:14.026Z,100.00
2019-02-22T00:11:46.342Z,100.00
2019-02-22T00:14:17.580Z,100.00
2019-02-22T00:16:48.775Z,100.00
2019-02-22T00:19:20.029Z,100.00
2019-02-22T00:21:51.290Z,100.00
2019-02-22T00:24:22.571Z,100.00
2019-02-22T00:26:53.757Z,100.00
2019-02-22T00:29:25.112Z,100.00
2019-02-22T00:31:56.415Z,100.00
2019-02-22T00:34:27.780Z,100.00
2019-02-22T00:36:59.119Z,100.00
2019-02-22T00:39:30.459Z,100.00
2019-02-22T00:42:01.717Z,100.00
2019-02-22T00:44:32.997Z,100.00
2019-02-22T00:47:04.188Z,100.00
2019-02-22T00:49:35.486Z,100.00
2019-02-22T00:52:06.723Z,100.00
2019-02-22T00:54:37.947Z,100.00
2019-02-22T00:57:09.163Z,100.00
2019-02-22T00:59:40.453Z,100.00
2019-02-22T01:02:11.705Z,100.00
2019-02-22T01:04:42.945Z,100.00
2019-02-22T01:07:14.305Z,100.00
2019-02-22T01:09:45.557Z,100.00
2019-02-22T01:12:16.747Z,100.00
2019-02-22T01:14:48.017Z,100.00
2019-02-22T01:17:19.271Z,100.00
2019-02-22T01:19:50.522Z,100.00
2019-02-22T01:22:21.870Z,100.00
2019-02-22T01:24:53.061Z,100.00
2019-02-22T01:27:24.310Z,100.00
2019-02-22T01:29:55.594Z,100.00
2019-02-22T01:32:26.872Z,100.00
2019-02-22T01:34:58.158Z,100.00
2019-02-22T01:37:29.360Z,100.00
2019-02-22T01:40:00.616Z,100.00
2019-02-22T01:42:31.909Z,100.00
2019-02-22T01:45:03.208Z,100.00
2019-02-22T01:47:34.487Z,100.00
2019-02-22T01:50:06.182Z,100.00
2019-02-22T01:52:37.478Z,100.00
2019-02-22T01:55:08.790Z,100.00
2019-02-22T01:57:40.005Z,100.00
2019-02-22T02:00:12.902Z,100.00
2019-02-22T02:02:44.173Z,100.00
2019-02-22T02:05:15.461Z,100.00
2019-02-22T02:07:46.708Z,100.00
2019-02-22T02:10:17.987Z,100.00
2019-02-22T02:12:49.229Z,100.00
2019-02-22T02:15:20.489Z,100.00
2019-02-22T02:17:51.762Z,100.00
2019-02-22T02:20:23.075Z,100.00
2019-02-22T02:22:54.332Z,100.00
2019-02-22T02:25:25.605Z,100.00
2019-02-22T02:27:56.811Z,100.00
2019-02-22T02:30:28.052Z,100.00
2019-02-22T02:32:59.270Z,100.00
2019-02-22T02:35:30.545Z,100.00
2019-02-22T02:38:01.867Z,100.00
2019-02-22T02:40:33.093Z,100.00
2019-02-22T02:43:04.290Z,100.00
2019-02-22T02:45:35.702Z,100.00
2019-02-22T02:48:07.024Z,100.00
2019-02-22T02:50:38.271Z,100.00
2019-02-22T02:53:09.526Z,100.00
2019-02-22T02:55:40.780Z,100.00
2019-02-22T02:58:12.145Z,100.00
2019-02-22T03:00:43.356Z,100.00
2019-02-22T03:03:14.647Z,100.00
2019-02-22T03:06:16.829Z,100.00
2019-02-22T03:08:48.096Z,100.00
2019-02-22T03:11:21.156Z,100.00
2019-02-22T03:13:52.290Z,100.00
2019-02-22T03:16:23.530Z,100.00
2019-02-22T03:18:54.790Z,100.00
2019-02-22T03:21:26.041Z,100.00
2019-02-22T03:23:57.317Z,100.00
2019-02-22T03:26:28.694Z,100.00
2019-02-22T03:29:01.366Z,100.00
2019-02-22T03:31:32.659Z,100.00
2019-02-22T03:34:03.930Z,100.00
2019-02-22T03:36:35.178Z,100.00
2019-02-22T03:39:07.765Z,100.00
2019-02-22T03:41:39.035Z,100.00
2019-02-22T03:44:10.319Z,100.00
2019-02-22T03:46:41.536Z,100.00
2019-02-22T03:49:12.899Z,100.00
2019-02-22T03:51:44.110Z,100.00
2019-02-22T03:54:15.501Z,100.00
2019-02-22T03:56:46.758Z,100.00
2019-02-22T03:59:18.089Z,100.00
2019-02-22T04:01:49.337Z,100.00
2019-02-22T04:04:20.693Z,100.00
2019-02-22T04:06:51.974Z,100.00
2019-02-22T04:09:23.271Z,100.00
2019-02-22T04:11:54.600Z,100.00
2019-02-22T04:14:25.893Z,100.00
2019-02-22T04:16:57.086Z,100.00
2019-02-22T04:19:28.673Z,100.00
2019-02-22T04:21:59.906Z,100.00
2019-02-22T04:24:31.170Z,100.00
2019-02-22T04:27:02.506Z,100.00
2019-02-22T04:29:33.796Z,100.00
2019-02-22T04:32:05.129Z,100.00
2019-02-22T04:34:36.448Z,100.00
2019-02-22T04:37:07.779Z,100.00
2019-02-22T04:39:39.044Z,100.00
2019-02-22T04:42:10.313Z,100.00
2019-02-22T04:44:41.655Z,100.00
2019-02-22T04:47:12.955Z,100.00
2019-02-22T04:49:44.230Z,100.00
2019-02-22T04:52:15.563Z,100.00
2019-02-22T04:54:46.770Z,100.00
2019-02-22T04:57:18.070Z,100.00
2019-02-22T04:59:49.304Z,100.00
2019-02-22T05:02:20.552Z,100.00
2019-02-22T05:04:51.933Z,100.00
2019-02-22T05:07:23.229Z,100.00
2019-02-22T05:09:54.707Z,100.00
2019-02-22T05:12:26.048Z,100.00
2019-02-22T05:15:16.350Z,100.00
2019-02-22T05:17:47.629Z,100.00
2019-02-22T05:20:18.893Z,100.00
2019-02-22T05:22:50.168Z,100.00
2019-02-22T05:25:21.435Z,100.00
2019-02-22T05:27:52.715Z,100.00
2019-02-22T05:30:23.988Z,100.00
2019-02-22T05:32:55.277Z,100.00
2019-02-22T05:35:26.577Z,100.00
2019-02-22T05:37:57.816Z,100.00
2019-02-22T05:40:29.143Z,100.00
2019-02-22T05:43:00.407Z,100.00
2019-02-22T05:45:31.686Z,100.00
2019-02-22T05:48:02.949Z,100.00
2019-02-22T05:50:34.220Z,100.00
2019-02-22T05:53:05.498Z,100.00
2019-02-22T05:55:36.799Z,100.00
2019-02-22T05:58:08.103Z,100.00
2019-02-22T06:00:39.377Z,100.00
2019-02-22T06:03:13.892Z,100.00
2019-02-22T06:05:45.244Z,100.00
2019-02-22T06:08:16.544Z,100.00
2019-02-22T06:10:47.770Z,100.00
2019-02-22T06:13:19.102Z,100.00
2019-02-22T06:15:50.372Z,100.00
2019-02-22T06:18:23.132Z,100.00
2019-02-22T06:20:54.509Z,100.00
2019-02-22T06:23:25.884Z,100.00
2019-02-22T06:25:57.135Z,100.00
2019-02-22T06:28:28.415Z,100.00
2019-02-22T06:30:59.693Z,100.00
2019-02-22T06:33:30.881Z,100.00
2019-02-22T06:36:02.158Z,100.00
2019-02-22T06:38:33.453Z,100.00
2019-02-22T06:41:04.713Z,100.00
2019-02-22T06:43:35.882Z,100.00
2019-02-22T06:46:07.148Z,100.00
2019-02-22T06:48:38.424Z,100.00
2019-02-22T06:51:09.759Z,100.00
2019-02-22T06:53:40.925Z,100.00
2019-02-22T06:56:12.187Z,100.00
2019-02-22T06:58:43.485Z,100.00
2019-02-22T07:01:14.755Z,100.00
2019-02-22T07:03:46.045Z,100.00
2019-02-22T07:06:17.251Z,100.00
2019-02-22T07:08:48.523Z,100.00
2019-02-22T07:11:26.704Z,100.00
2019-02-22T07:13:57.888Z,100.00
2019-02-22T07:16:29.199Z,100.00
2019-02-22T07:19:00.396Z,100.00
2019-02-22T07:21:43.747Z,100.00
2019-02-22T07:24:04.570Z,100.00
2019-02-22T07:26:35.809Z,100.00
2019-02-22T07:29:07.086Z,100.00
2019-02-22T07:31:38.351Z,100.00
2019-02-22T07:34:09.556Z,100.00
2019-02-22T07:36:40.737Z,100.00
2019-02-22T07:39:12.022Z,100.00
2019-02-22T07:41:43.281Z,100.00
2019-02-22T07:44:14.516Z,100.00
2019-02-22T07:46:45.804Z,100.00
2019-02-22T07:49:25.693Z,100.00
2019-02-22T07:51:56.938Z,100.00
2019-02-22T07:54:28.155Z,100.00
2019-02-22T07:56:59.420Z,100.00
2019-02-22T07:59:30.710Z,100.00
2019-02-22T08:02:01.982Z,100.00
2019-02-22T08:04:33.275Z,100.00
2019-02-22T08:07:04.551Z,100.00
2019-02-22T08:09:35.827Z,100.00
2019-02-22T08:12:07.135Z,100.00
2019-02-22T08:14:38.418Z,100.00
2019-02-22T08:17:09.724Z,100.00
2019-02-22T08:19:40.998Z,100.00
2019-02-22T08:22:12.315Z,100.00
2019-02-22T08:24:43.561Z,99.87
2019-02-22T08:27:14.774Z,99.54
2019-02-22T08:29:46.059Z,99.04
2019-02-22T08:32:17.341Z,98.37
2019-02-22T08:34:48.540Z,99.34
2019-02-22T08:37:19.746Z,99.48
2019-02-22T08:39:58.571Z,99.03
2019-02-22T08:42:23.915Z,98.83
2019-02-22T08:44:55.105Z,95.92
2019-02-22T08:47:26.431Z,95.02
2019-02-22T08:49:57.711Z,94.72
2019-02-22T08:52:28.970Z,95.54
2019-02-22T08:55:00.425Z,95.98
2019-02-22T08:57:31.630Z,96.38
2019-02-22T09:00:02.816Z,95.98
2019-02-22T09:02:34.135Z,94.87
2019-02-22T09:05:05.625Z,95.04
2019-02-22T09:07:36.979Z,95.16
2019-02-22T09:10:09.071Z,95.14
2019-02-22T09:12:40.350Z,95.87
2019-02-22T09:15:11.743Z,96.42
2019-02-22T09:17:43.035Z,94.96
2019-02-22T09:20:14.407Z,94.21
2019-02-22T09:22:45.877Z,93.79
2019-02-22T09:25:17.124Z,92.91
2019-02-22T09:27:50.909Z,92.77
2019-02-22T09:30:22.522Z,92.34
2019-02-22T09:32:53.758Z,91.53
2019-02-22T09:35:28.069Z,92.05
2019-02-22T09:37:59.375Z,92.01
2019-02-22T09:40:30.603Z,92.03
2019-02-22T09:43:01.906Z,91.65
2019-02-22T09:45:33.364Z,90.49
2019-02-22T09:48:04.674Z,89.47
2019-02-22T09:50:35.820Z,86.96
2019-02-22T09:53:07.101Z,84.05
2019-02-22T09:55:38.397Z,84.66
2019-02-22T09:58:09.674Z,85.58
2019-02-22T10:00:40.982Z,85.06
2019-02-22T10:03:12.249Z,84.68
2019-02-22T10:05:43.647Z,83.00
2019-02-22T10:08:14.974Z,82.37
2019-02-22T10:10:46.382Z,80.37
2019-02-22T10:13:17.725Z,80.85
2019-02-22T10:15:49.111Z,79.58
2019-02-22T10:18:20.403Z,77.83
2019-02-22T10:20:51.670Z,77.49
2019-02-22T10:23:22.945Z,77.58
2019-02-22T10:25:54.249Z,76.26
2019-02-22T10:28:25.540Z,77.50
2019-02-22T10:30:56.873Z,76.31
2019-02-22T10:33:36.182Z,76.89
2019-02-22T10:36:01.091Z,75.47
2019-02-22T10:38:52.696Z,75.50
2019-02-22T10:41:23.908Z,71.42
2019-02-22T10:43:55.083Z,69.92
2019-02-22T10:46:26.276Z,67.80
2019-02-22T10:49:01.681Z,71.48
2019-02-22T10:51:49.570Z,73.86
2019-02-22T10:54:42.580Z,72.55
2019-02-22T10:57:27.640Z,70.38
2019-02-22T11:00:05.775Z,71.65
2019-02-22T11:02:44.993Z,69.28
2019-02-22T11:05:22.897Z,67.58
2019-02-22T11:08:04.075Z,69.40
2019-02-22T11:10:39.769Z,70.30
2019-02-22T11:13:16.435Z,68.14
2019-02-22T11:15:50.286Z,65.96
2019-02-22T11:18:26.249Z,66.93
2019-02-22T11:20:57.528Z,64.26
2019-02-22T11:23:36.963Z,63.11
2019-02-22T11:26:11.228Z,60.06
2019-02-22T11:28:45.963Z,58.83
2019-02-22T11:31:23.272Z,56.16
2019-02-22T11:33:54.587Z,57.36
2019-02-22T11:36:25.813Z,57.54
2019-02-22T11:38:57.183Z,57.47
2019-02-22T11:41:28.749Z,58.11
2019-02-22T11:44:00.161Z,60.24
2019-02-22T11:46:31.799Z,57.76
2019-02-22T11:49:07.420Z,55.63
2019-02-22T11:51:38.660Z,55.49
2019-02-22T11:54:10.814Z,55.97
2019-02-22T11:56:42.300Z,57.85
2019-02-22T11:59:13.972Z,57.41
2019-02-22T12:01:45.898Z,57.66
2019-02-22T12:04:17.235Z,57.29
2019-02-22T12:06:48.583Z,57.85
2019-02-22T12:09:19.847Z,59.87
2019-02-22T12:11:51.191Z,62.52
2019-02-22T12:14:22.473Z,59.01
2019-02-22T12:16:53.847Z,57.72
2019-02-22T12:19:25.195Z,58.17
2019-02-22T12:21:56.811Z,54.73
2019-02-22T12:24:28.119Z,54.47
2019-02-22T12:26:59.474Z,54.27
2019-02-22T12:29:30.732Z,53.86
2019-02-22T12:32:02.114Z,53.21
2019-02-22T12:34:39.367Z,53.58
2019-02-22T12:37:10.708Z,52.99
2019-02-22T12:39:45.046Z,52.90
2019-02-22T12:42:16.346Z,52.81
2019-02-22T12:44:47.618Z,52.03
2019-02-22T12:47:18.855Z,52.94
2019-02-22T12:49:53.773Z,51.83
2019-02-22T12:52:25.072Z,52.47
2019-02-22T12:54:56.391Z,52.89
2019-02-22T12:57:27.648Z,51.79
2019-02-22T12:59:58.912Z,51.56
2019-02-22T13:02:30.259Z,52.36
2019-02-22T13:05:01.521Z,53.27
2019-02-22T13:07:32.821Z,53.19
2019-02-22T13:10:04.239Z,53.57
2019-02-22T13:12:35.463Z,53.24
2019-02-22T13:15:14.002Z,54.14
2019-02-22T13:17:41.325Z,55.14
2019-02-22T13:20:12.637Z,56.08
2019-02-22T13:22:43.866Z,57.88
2019-02-22T13:25:15.111Z,57.94
2019-02-22T13:27:46.375Z,56.89
2019-02-22T13:30:17.713Z,57.70
2019-02-22T13:32:48.976Z,56.90
2019-02-22T13:35:20.269Z,57.27
2019-02-22T13:37:54.394Z,56.91
2019-02-22T13:40:25.773Z,56.83
2019-02-22T13:42:57.113Z,56.57
2019-02-22T13:45:28.520Z,56.03
2019-02-22T13:48:00.010Z,54.84
2019-02-22T13:50:31.277Z,55.00
2019-02-22T13:53:02.578Z,54.28
2019-02-22T13:55:33.904Z,53.93
2019-02-22T13:58:05.169Z,53.31
2019-02-22T14:00:36.772Z,52.79
2019-02-22T14:03:08.412Z,53.26
2019-02-22T14:05:39.711Z,53.52
2019-02-22T14:08:10.992Z,54.57
2019-02-22T14:10:44.439Z,54.82
2019-02-22T14:13:18.370Z,54.55
2019-02-22T14:15:49.591Z,55.02
2019-02-22T14:18:22.230Z,55.38
2019-02-22T14:20:59.024Z,55.54
2019-02-22T14:23:30.253Z,55.86
2019-02-22T14:26:01.747Z,56.18
2019-02-22T14:28:33.239Z,56.15
2019-02-22T14:31:04.876Z,55.85
2019-02-22T14:33:37.093Z,56.31
2019-02-22T14:36:08.471Z,56.96
2019-02-22T14:38:43.914Z,58.10
2019-02-22T14:41:17.492Z,59.36
2019-02-22T14:43:49.950Z,59.72
2019-02-22T14:46:25.932Z,60.01
2019-02-22T14:48:58.125Z,60.58
2019-02-22T14:51:32.880Z,60.61
2019-02-22T14:54:04.119Z,60.59
2019-02-22T14:56:35.430Z,61.12
2019-02-22T14:59:06.695Z,60.42
2019-02-22T15:01:38.046Z,60.58
2019-02-22T15:04:09.351Z,61.04
2019-02-22T15:06:40.671Z,62.10
2019-02-22T15:09:11.877Z,62.53
2019-02-22T15:11:43.095Z,63.13
2019-02-22T15:14:14.428Z,63.38
2019-02-22T15:16:55.694Z,63.31
2019-02-22T15:19:26.990Z,62.53
2019-02-22T15:22:00.893Z,63.01
2019-02-22T15:24:33.083Z,61.12
2019-02-22T15:27:04.309Z,61.26
2019-02-22T15:29:35.627Z,61.52
2019-02-22T15:32:06.917Z,60.18
2019-02-22T15:34:38.101Z,60.42
2019-02-22T15:37:09.452Z,59.83
2019-02-22T15:39:40.714Z,60.90
2019-02-22T15:42:11.976Z,60.60
2019-02-22T15:44:43.422Z,60.63
2019-02-22T15:47:14.658Z,60.71
2019-02-22T15:49:48.557Z,59.62
2019-02-22T15:52:19.172Z,60.06
2019-02-22T15:54:50.437Z,59.78
2019-02-22T15:57:21.793Z,59.64
2019-02-22T15:59:53.152Z,58.91
2019-02-22T16:02:24.493Z,58.42
2019-02-22T16:05:06.331Z,58.72
2019-02-22T16:07:44.588Z,58.75
2019-02-22T16:10:10.900Z,59.11
2019-02-22T16:12:42.254Z,59.51
2019-02-22T16:15:14.800Z,59.96
2019-02-22T16:17:46.130Z,60.08
2019-02-22T16:20:17.424Z,60.74
2019-02-22T16:22:51.194Z,61.01
2019-02-22T16:25:21.787Z,60.14
2019-02-22T16:27:53.241Z,60.56
2019-02-22T16:30:26.762Z,61.01
2019-02-22T16:32:58.142Z,61.23
2019-02-22T16:35:29.416Z,61.42
2019-02-22T16:38:00.709Z,61.53
2019-02-22T16:40:32.014Z,61.81
2019-02-22T16:43:03.293Z,61.85
2019-02-22T16:45:34.553Z,61.73
2019-02-22T16:48:05.850Z,61.48
2019-02-22T16:50:37.913Z,61.74
2019-02-22T16:53:09.174Z,62.28
2019-02-22T16:55:40.483Z,63.18
2019-02-22T16:58:11.679Z,63.63
2019-02-22T17:00:42.918Z,64.18
2019-02-22T17:03:14.186Z,64.61
2019-02-22T17:05:45.475Z,64.72
2019-02-22T17:08:16.871Z,64.89
2019-02-22T17:10:48.228Z,64.82
2019-02-22T17:13:19.499Z,65.19
2019-02-22T17:15:50.795Z,65.46
2019-02-22T17:18:21.992Z,65.81
2019-02-22T17:20:53.215Z,67.23
2019-02-22T17:23:24.547Z,67.45
2019-02-22T17:25:55.998Z,68.42
2019-02-22T17:28:27.280Z,68.96
2019-02-22T17:30:58.623Z,69.34
2019-02-22T17:33:29.981Z,69.62
2019-02-22T17:36:01.324Z,70.26
2019-02-22T17:38:32.536Z,70.23
2019-02-22T17:41:03.829Z,70.46
2019-02-22T17:43:35.213Z,71.55
2019-02-22T17:46:06.519Z,71.85
2019-02-22T17:48:37.907Z,72.12
2019-02-22T17:51:09.258Z,72.32
2019-02-22T17:53:40.461Z,72.84
2019-02-22T17:56:11.721Z,72.96
2019-02-22T17:58:43.047Z,73.55
2019-02-22T18:01:15.551Z,73.67
2019-02-22T18:03:47.042Z,72.10
2019-02-22T18:06:18.642Z,72.42
2019-02-22T18:08:50.074Z,72.63
2019-02-22T18:11:21.446Z,73.48
2019-02-22T18:13:52.844Z,73.55
2019-02-22T18:16:24.103Z,73.40
2019-02-22T18:18:58.640Z,73.68
2019-02-22T18:21:29.968Z,73.61
2019-02-22T18:24:02.282Z,73.65
2019-02-22T18:26:34.533Z,74.15
2019-02-22T18:29:05.802Z,74.55
2019-02-22T18:31:37.313Z,74.69
2019-02-22T18:34:08.664Z,74.89
2019-02-22T18:36:39.913Z,74.86
2019-02-22T18:39:11.207Z,75.60
2019-02-22T18:41:42.522Z,75.68
2019-02-22T18:44:13.820Z,76.30
2019-02-22T18:46:45.156Z,76.90
2019-02-22T18:49:19.782Z,77.50
2019-02-22T18:51:51.239Z,77.49
2019-02-22T18:54:22.543Z,77.71
2019-02-22T18:56:53.967Z,78.07
2019-02-22T18:59:26.484Z,78.58
2019-02-22T19:01:57.814Z,79.52
2019-02-22T19:04:29.219Z,80.57
2019-02-22T19:07:00.487Z,81.29
2019-02-22T19:09:31.911Z,81.89
2019-02-22T19:12:03.359Z,82.54
2019-02-22T19:14:34.651Z,83.52
2019-02-22T19:17:06.389Z,83.88
2019-02-22T19:19:37.721Z,84.55
2019-02-22T19:22:09.148Z,84.82
2019-02-22T19:24:40.493Z,85.54
2019-02-22T19:27:11.801Z,86.19
2019-02-22T19:29:43.204Z,86.77
2019-02-22T19:32:14.566Z,87.81
2019-02-22T19:34:45.840Z,88.31
2019-02-22T19:37:19.131Z,89.24
2019-02-22T19:39:50.351Z,90.47
2019-02-22T19:42:23.429Z,90.86
2019-02-22T19:44:54.732Z,90.71
2019-02-22T19:47:26.184Z,91.96
2019-02-22T19:49:58.944Z,92.27
2019-02-22T19:52:30.319Z,92.69
2019-02-22T19:55:01.744Z,93.78
2019-02-22T19:57:33.205Z,94.11
2019-02-22T20:00:04.814Z,94.50
2019-02-22T20:02:36.139Z,95.04
2019-02-22T20:05:08.098Z,94.93
2019-02-22T20:07:39.422Z,94.88
2019-02-22T20:10:17.960Z,94.79
2019-02-22T20:12:46.045Z,95.55
2019-02-22T20:15:17.990Z,96.31
2019-02-22T20:17:54.533Z,96.84
2019-02-22T20:20:22.384Z,97.23
2019-02-22T20:22:53.680Z,97.21
2019-02-22T20:25:24.957Z,97.49
2019-02-22T20:27:56.273Z,97.67
2019-02-22T20:30:27.615Z,97.60
2019-02-22T20:32:59.149Z,97.69
2019-02-22T20:35:31.194Z,98.04
2019-02-22T20:38:03.138Z,97.66
2019-02-22T20:40:37.423Z,97.15
2019-02-22T20:43:11.657Z,96.74
2019-02-22T20:45:43.069Z,96.56
2019-02-22T20:48:14.571Z,96.38
2019-02-22T20:50:46.085Z,96.80
2019-02-22T20:53:17.446Z,97.01
2019-02-22T20:55:48.799Z,97.11
2019-02-22T20:58:20.168Z,97.05
2019-02-22T21:00:51.471Z,96.65
2019-02-22T21:03:22.913Z,96.35
2019-02-22T21:05:54.307Z,95.78
2019-02-22T21:08:25.595Z,95.36
2019-02-22T21:10:56.873Z,94.97
2019-02-22T21:13:28.337Z,94.70
2019-02-22T21:15:59.736Z,94.57
2019-02-22T21:18:31.005Z,94.27
2019-02-22T21:21:02.424Z,94.40
2019-02-22T21:23:33.884Z,94.28
2019-02-22T21:26:05.258Z,93.83
2019-02-22T21:28:36.612Z,93.43
2019-02-22T21:31:07.922Z,93.41
2019-02-22T21:33:39.383Z,93.05
2019-02-22T21:36:10.786Z,92.47
2019-02-22T21:38:42.017Z,91.70
2019-02-22T21:41:16.186Z,91.68
2019-02-22T21:43:46.425Z,91.72
2019-02-22T21:46:17.741Z,91.67
2019-02-22T21:48:49.037Z,91.79
2019-02-22T21:51:20.407Z,91.43
2019-02-22T21:53:51.789Z,91.35
2019-02-22T21:56:23.095Z,91.53
2019-02-22T22:01:23.450Z,91.95
2019-02-22T22:03:54.748Z,91.89
2019-02-22T22:06:26.133Z,91.62
2019-02-22T22:08:57.331Z,92.13
2019-02-22T22:11:28.668Z,92.27
2019-02-22T22:14:01.093Z,91.92
2019-02-22T22:16:32.607Z,91.76
2019-02-22T22:19:03.892Z,91.90
2019-02-22T22:21:35.244Z,91.82
2019-02-22T22:24:06.965Z,92.00
2019-02-22T22:26:38.411Z,92.35
2019-02-22T22:29:09.655Z,92.94
2019-02-22T22:31:41.182Z,92.58
2019-02-22T22:34:12.592Z,92.91
2019-02-22T22:36:43.942Z,93.24
2019-02-22T22:39:15.263Z,93.58
2019-02-22T22:41:46.600Z,94.36
2019-02-22T22:44:17.859Z,94.67
2019-02-22T22:46:49.072Z,94.37
2019-02-22T22:49:20.409Z,94.04
2019-02-22T22:51:54.033Z,94.01
2019-02-22T22:54:27.397Z,94.04
2019-02-22T22:56:58.543Z,93.79
2019-02-22T22:59:30.011Z,93.54
2019-02-22T23:02:01.471Z,93.64
2019-02-22T23:04:32.878Z,93.38
2019-02-22T23:07:04.124Z,93.64
2019-02-22T23:09:35.582Z,93.43
2019-02-22T23:12:07.391Z,93.56
2019-02-22T23:14:38.930Z,93.95
2019-02-22T23:17:10.275Z,94.19
2019-02-22T23:19:41.890Z,94.57
2019-02-22T23:22:13.271Z,95.12
2019-02-22T23:24:44.612Z,95.59
2019-02-22T23:27:16.145Z,96.01
2019-02-22T23:29:47.470Z,95.75
2019-02-22T23:32:18.774Z,95.65
2019-02-22T23:34:50.020Z,95.70
2019-02-22T23:37:21.411Z,95.66
2019-02-22T23:39:52.692Z,95.75
2019-02-22T23:42:24.031Z,95.87
2019-02-22T23:44:55.378Z,95.96
2019-02-22T23:47:26.787Z,95.88
2019-02-22T23:49:59.129Z,95.85
2019-02-22T23:52:30.514Z,95.95
2019-02-22T23:55:04.972Z,95.73
2019-02-22T23:57:36.393Z,95.69
